地図

経路データ

SID SEASON NUMBER BASIN SUBBASIN NAME ISO_TIME NATURE LAT LON WMO_WIND WMO_PRES WMO_AGENCY TRACK_TYPE DIST2LAND LANDFALL IFLAG USA_AGENCY USA_ATCF_ID USA_LAT USA_LON USA_RECORD USA_STATUS USA_WIND USA_PRES USA_SSHS USA_R34_NE USA_R34_SE USA_R34_SW USA_R34_NW USA_R50_NE USA_R50_SE USA_R50_SW USA_R50_NW USA_R64_NE USA_R64_SE USA_R64_SW USA_R64_NW USA_POCI USA_ROCI USA_RMW USA_EYE TOKYO_LAT TOKYO_LON TOKYO_GRADE TOKYO_WIND TOKYO_PRES TOKYO_R50_DIR TOKYO_R50_LONG TOKYO_R50_SHORT TOKYO_R30_DIR TOKYO_R30_LONG TOKYO_R30_SHORT TOKYO_LAND CMA_LAT CMA_LON CMA_CAT CMA_WIND CMA_PRES HKO_LAT HKO_LON HKO_CAT HKO_WIND HKO_PRES NEWDELHI_LAT NEWDELHI_LON NEWDELHI_GRADE NEWDELHI_WIND NEWDELHI_PRES NEWDELHI_CI NEWDELHI_DP NEWDELHI_POCI REUNION_LAT REUNION_LON REUNION_TYPE REUNION_WIND REUNION_PRES REUNION_TNUM REUNION_CI REUNION_RMW REUNION_R34_NE REUNION_R34_SE REUNION_R34_SW REUNION_R34_NW REUNION_R50_NE REUNION_R50_SE REUNION_R50_SW REUNION_R50_NW REUNION_R64_NE REUNION_R64_SE REUNION_R64_SW REUNION_R64_NW BOM_LAT BOM_LON BOM_TYPE BOM_WIND BOM_PRES BOM_TNUM BOM_CI BOM_RMW BOM_R34_NE BOM_R34_SE BOM_R34_SW BOM_R34_NW BOM_R50_NE BOM_R50_SE BOM_R50_SW BOM_R50_NW BOM_R64_NE BOM_R64_SE BOM_R64_SW BOM_R64_NW BOM_ROCI BOM_POCI BOM_EYE BOM_POS_METHOD BOM_PRES_METHOD NADI_LAT NADI_LON NADI_CAT NADI_WIND NADI_PRES WELLINGTON_LAT WELLINGTON_LON WELLINGTON_WIND WELLINGTON_PRES DS824_LAT DS824_LON DS824_STAGE DS824_WIND DS824_PRES TD9636_LAT TD9636_LON TD9636_STAGE TD9636_WIND TD9636_PRES TD9635_LAT TD9635_LON TD9635_WIND TD9635_PRES TD9635_ROCI NEUMANN_LAT NEUMANN_LON NEUMANN_CLASS NEUMANN_WIND NEUMANN_PRES MLC_LAT MLC_LON MLC_CLASS MLC_WIND MLC_PRES USA_GUST BOM_GUST BOM_GUST_PER REUNION_GUST REUNION_GUST_PER USA_SEAHGT USA_SEARAD_NE USA_SEARAD_SE USA_SEARAD_SW USA_SEARAD_NW STORM_SPEED STORM_DIR
1972204N20148 1972 62 WP MM NOT_NAMED 1972-07-22 00:00:00 TS 19.7000 147.800 main 1866 1837 __O___________ -1 19.7000 147.800 1 29 1002 6 315
1972204N20148 1972 62 WP MM NOT_NAMED 1972-07-22 03:00:00 TS 19.9150 147.572 main 1837 1794 __P___________ -1 19.9150 147.572 1 29 1002 7 317
1972204N20148 1972 62 WP MM NOT_NAMED 1972-07-22 06:00:00 TS 20.2000 147.300 main 1794 1741 __O___________ -1 20.2000 147.300 1 29 1002 9 320
1972204N20148 1972 62 WP MM NOT_NAMED 1972-07-22 09:00:00 TS 20.5926 146.958 main 1741 1684 __P___________ -1 20.5926 146.958 1 26 1002 10 321
1972204N20148 1972 62 WP MM NOT_NAMED 1972-07-22 12:00:00 TS 21.0000 146.600 main 1684 1641 __O___________ -1 21.0000 146.600 1 23 1002 9 320
1972204N20148 1972 62 WP MM NOT_NAMED 1972-07-22 15:00:00 TS 21.3148 146.307 main 1641 1599 __P___________ -1 21.3148 146.307 1 23 1002 8 317
1972204N20148 1972 62 WP MM NOT_NAMED 1972-07-22 18:00:00 TS 21.6000 146.000 main 1599 1553 __O___________ -1 21.6000 146.000 1 23 1002 9 312
1972204N20148 1972 62 WP MM NOT_NAMED 1972-07-22 21:00:00 TS 21.9001 145.607 main 1553 1508 __P___________ -1 21.9001 145.607 1 23 1001 10 309
1972204N20148 1972 62 WP MM NOT_NAMED 1972-07-23 00:00:00 TS 22.2000 145.200 main 1508 1463 __O___________ -1 22.2000 145.200 1 23 1001 10 310
1972204N20148 1972 62 WP MM NOT_NAMED 1972-07-23 03:00:00 TS 22.5075 144.813 main 1463 1422 __P___________ -1 22.5075 144.813 1 21 1001 9 313
1972204N20148 1972 62 WP MM NOT_NAMED 1972-07-23 06:00:00 TS 22.8000 144.500 main 1422 1394 __O___________ -1 22.8000 144.500 0 19 1002 7 321
1972204N20148 1972 62 WP MM NOT_NAMED 1972-07-23 09:00:00 TS 23.0573 144.327 main 1384 1359 __P___________ -1 23.0573 144.327 0 19 1002 6 331
1972204N20148 1972 62 WP MM NOT_NAMED 1972-07-23 12:00:00 TS 23.3000 144.200 main 1359 1332 __O___________ -1 23.3000 144.200 0 19 1002 6 329
1972204N20148 1972 62 WP MM NOT_NAMED 1972-07-23 15:00:00 TS 23.5500 144.007 main 1321 1294 __P___________ -1 23.5500 144.007 0 19 1002 6 324
1972204N20148 1972 62 WP MM NOT_NAMED 1972-07-23 18:00:00 TS 23.8000 143.800 main 1294 1267 __O___________ -1 23.8000 143.800 0 19 1002 6 322
1972204N20148 1972 62 WP MM NOT_NAMED 1972-07-23 21:00:00 TS 24.0425 143.585 main 1267 1230 __P___________ -1 24.0425 143.585 0 19 1002 6 324
1972204N20148 1972 62 WP MM NOT_NAMED 1972-07-24 00:00:00 TS 24.3000 143.400 main 1230 1195 __O___________ -1 24.3000 143.400 0 19 1002 6 333
1972204N20148 1972 62 WP MM NOT_NAMED 1972-07-24 03:00:00 TS 24.5775 143.285 main 1195 1160 __P___________ -1 24.5775 143.285 0 24 1002 6 343
1972204N20148 1972 62 WP MM NOT_NAMED 1972-07-24 06:00:00 TS 24.9000 143.200 main 1160 1111 __O___________ -1 24.9000 143.200 1 29 1002 8 343
1972204N20148 1972 62 WP MM NOT_NAMED 1972-07-24 09:00:00 TS 25.2999 143.041 main 1111 1068 __P___________ -1 25.2999 143.041 1 29 1002 8 347
1972204N20148 1972 62 WP MM NOT_NAMED 1972-07-24 12:00:00 TS 25.7000 143.000 main 1068 1039 __O___________ -1 25.7000 143.000 1 29 1002 8 12
1972204N20148 1972 62 WP MM NOT_NAMED 1972-07-24 15:00:00 TS 26.0525 143.217 main 1031 1019 __P___________ -1 26.0525 143.217 1 29 1002 8 42
1972204N20148 1972 62 WP MM NOT_NAMED 1972-07-24 18:00:00 TS 26.3000 143.600 main 1022 1015 __O___________ -1 26.3000 143.600 1 29 1002 9 61
1972204N20148 1972 62 WP MM NOT_NAMED 1972-07-24 21:00:00 TS 26.5005 144.125 main 1019 1019 __P___________ -1 26.5005 144.125 1 29 1002 8 83
1972204N20148 1972 62 WP MM NOT_NAMED 1972-07-25 00:00:00 TS 26.4000 144.500 main 1044 1044 __O___________ -1 26.4000 144.500 1 29 1002 8 159
1972204N20148 1972 62 WP MM NOT_NAMED 1972-07-25 03:00:00 TS 25.7746 144.442 main 1102 1102 __P___________ -1 25.7746 144.442 1 29 1001 18 186
1972204N20148 1972 62 WP MM NOT_NAMED 1972-07-25 06:00:00 TS 24.6000 144.280 1000 tokyo main 1224 1224 _OO___________ -1 23.0000 145.000 2 1000 0 0 0 25.0000 144.100 1 29 1000 17 195
1972204N20148 1972 62 WP MM NOT_NAMED 1972-07-25 09:00:00 TS 24.1569 143.963 main 1257 1257 _PP___________ -1 23.4300 144.630 2 1000 0 0 24.5203 143.630 1 29 1000 9 226
1972204N20148 1972 62 WP MM NOT_NAMED 1972-07-25 12:00:00 TS 23.9714 143.571 1000 tokyo main 1267 1265 _OO___________ -1 23.8000 144.200 2 1000 0 0 0 24.1000 143.100 1 29 1000 8 246
1972204N20148 1972 62 WP MM NOT_NAMED 1972-07-25 15:00:00 TS 23.8250 143.157 main 1278 1271 _PP___________ -1 24.0350 143.673 2 1000 0 0 23.6150 142.640 1 29 1000 9 242
1972204N20148 1972 62 WP MM NOT_NAMED 1972-07-25 18:00:00 TS 23.5500 142.700 1000 tokyo main 1283 1283 _OO___________ -1 24.0000 143.100 2 1000 0 0 0 23.1000 142.300 1 29 1000 11 226
1972204N20148 1972 62 WP MM NOT_NAMED 1972-07-25 21:00:00 TS 23.0476 142.288 main 1323 1318 _PP___________ -1 23.5679 142.443 2 1000 0 0 22.5273 142.133 1 29 1000 12 210
1972204N20148 1972 62 WP MM NOT_NAMED 1972-07-26 00:00:00 TS 22.5000 142.050 1000 tokyo main 1364 1359 _OO___________ -1 23.0000 142.000 2 1000 0 0 0 22.0000 142.100 1 29 1000 10 193
1972204N20148 1972 62 WP MM NOT_NAMED 1972-07-26 03:00:00 TS 22.1010 142.053 main 1404 1404 _PP___________ -1 22.5972 142.016 2 999 0 0 21.6049 142.090 1 29 999 7 165
1972204N20148 1972 62 WP MM NOT_NAMED 1972-07-26 06:00:00 TS 21.8000 142.250 998 tokyo main 1443 1443 _OO___________ -1 22.3000 142.300 2 998 0 0 0 21.3000 142.200 1 29 999 7 141
1972204N20148 1972 62 WP MM NOT_NAMED 1972-07-26 09:00:00 TS 21.5476 142.541 main 1482 1482 _PP___________ -1 22.0977 142.635 2 998 0 0 20.9975 142.448 1 29 998 7 124
1972204N20148 1972 62 WP MM NOT_NAMED 1972-07-26 12:00:00 TS 21.4000 142.900 998 tokyo main 1510 1510 _OO___________ -1 22.0000 143.000 2 998 0 0 0 20.8000 142.800 1 29 998 7 106
1972204N20148 1972 62 WP MM NOT_NAMED 1972-07-26 15:00:00 TS 21.3662 143.232 main 1524 1524 _PP___________ -1 21.9774 143.265 2 998 0 0 20.7551 143.200 1 29 998 6 90
1972204N20148 1972 62 WP MM NOT_NAMED 1972-07-26 18:00:00 TS 21.4000 143.550 998 tokyo main 1543 1543 _OO___________ -1 22.0000 143.500 2 998 0 0 0 20.8000 143.600 1 29 998 6 85
1972204N20148 1972 62 WP MM NOT_NAMED 1972-07-26 21:00:00 TS 21.4212 143.851 main 1555 1555 _PP___________ -1 22.0000 143.750 2 997 0 0 20.8425 143.952 1 29 997 5 84
1972204N20148 1972 62 WP MM NOT_NAMED 1972-07-27 00:00:00 TS 21.4500 144.100 996 tokyo main 1550 1550 _OO___________ -1 22.0000 144.000 2 996 0 0 0 20.9000 144.200 1 29 996 4 83
1972204N20148 1972 62 WP MM NOT_NAMED 1972-07-27 03:00:00 TS 21.4712 144.273 main 1556 1556 _PP___________ -1 22.0000 144.250 2 993 0 0 20.9424 144.295 1 33 995 3 80
1972204N20148 1972 62 WP MM NOT_NAMED 1972-07-27 06:00:00 TS 21.5000 144.400 990 tokyo main 1558 1550 _OO___________ -1 22.0000 144.500 9 990 0 0 0 21.0000 144.300 2 38 994 3 70
1972204N20148 1972 62 WP MM NOT_NAMED 1972-07-27 09:00:00 TS 21.5613 144.540 main 1550 1550 _PP___________ -1 22.0300 144.765 9 990 0 0 21.0925 144.315 2 38 992 3 67
1972204N20148 1972 62 WP MM NOT_NAMED 1972-07-27 12:00:00 TS 21.6000 144.650 990 tokyo main 1556 1553 _OO___________ -1 22.0000 145.000 9 990 0 0 0 21.2000 144.300 2 38 990 2 89
1972204N20148 1972 62 WP MM NOT_NAMED 1972-07-27 15:00:00 TS 21.5650 144.730 main 1556 1556 _PP___________ -1 21.8225 145.195 9 991 0 0 21.3075 144.265 2 38 992 1 137
1972204N20148 1972 62 WP MM NOT_NAMED 1972-07-27 18:00:00 TS 21.5000 144.750 992 tokyo main 1570 1567 _OO___________ -1 21.6000 145.300 9 992 0 0 0 21.4000 144.200 2 38 994 1 0
1972204N20148 1972 62 WP MM NOT_NAMED 1972-07-27 21:00:00 TS 21.4500 144.712 main 1578 1575 _PP___________ -1 21.4349 145.310 9 994 0 0 21.4650 144.115 2 33 995 2 233
1972204N20148 1972 62 WP MM NOT_NAMED 1972-07-28 00:00:00 TS 21.4000 144.600 996 tokyo main 1575 1569 _OO___________ -1 21.3000 145.200 2 996 0 0 0 21.5000 144.000 1 29 996 3 249
1972204N20148 1972 62 WP MM NOT_NAMED 1972-07-28 03:00:00 TS 21.3463 144.422 main 1580 1575 _PP___________ -1 21.1850 144.987 2 997 0 0 21.5075 143.857 1 29 997 4 255
1972204N20148 1972 62 WP MM NOT_NAMED 1972-07-28 06:00:00 TS 21.3000 144.200 998 tokyo main 1575 1569 _OO___________ -1 21.1000 144.700 2 998 0 0 0 21.5000 143.700 1 29 998 4 260
1972204N20148 1972 62 WP MM NOT_NAMED 1972-07-28 09:00:00 TS 21.2712 143.979 main 1569 1563 _PP___________ -1 21.0350 144.408 2 999 0 0 21.5075 143.550 1 26 999 4 263
1972204N20148 1972 62 WP MM NOT_NAMED 1972-07-28 12:00:00 TS 21.2500 143.750 1000 tokyo main 1563 1558 _OO___________ -1 21.0000 144.100 2 1000 0 0 0 21.5000 143.400 1 23 1000 4 264
1972204N20148 1972 62 WP MM NOT_NAMED 1972-07-28 15:00:00 TS 21.2249 143.536 main 1558 1549 _PP___________ -1 20.9924 143.815 2 1000 0 0 21.4575 143.258 1 23 1001 4 263
1972204N20148 1972 62 WP MM NOT_NAMED 1972-07-28 18:00:00 TS 21.2000 143.300 1000 tokyo main 1549 1535 _OO___________ -1 21.0000 143.500 2 1000 0 0 0 21.4000 143.100 1 23 1002 5 264
1972204N20148 1972 62 WP MM NOT_NAMED 1972-07-28 21:00:00 TS 21.1787 143.023 main 1535 1522 _PP___________ -1 21.0001 143.107 2 1001 0 0 21.3574 142.938 1 23 1002 6 265
1972204N20148 1972 62 WP MM NOT_NAMED 1972-07-29 00:00:00 TS 21.1500 142.700 1002 tokyo main 1522 1519 _OO___________ -1 21.0000 142.700 2 1002 0 0 0 21.3000 142.700 1 23 1002 6 263
1972204N20148 1972 62 WP MM NOT_NAMED 1972-07-29 03:00:00 TS 21.0999 142.351 main 1519 1502 _PP___________ -1 20.9997 142.365 2 1002 0 0 21.2000 142.337 1 23 1002 7 262
1972204N20148 1972 62 WP MM NOT_NAMED 1972-07-29 06:00:00 TS 21.0500 141.950 1002 tokyo main 1502 1494 _OO___________ -1 21.0000 142.000 2 1002 0 0 0 21.1000 141.900 1 23 1002 8 264
1972204N20148 1972 62 WP MM NOT_NAMED 1972-07-29 09:00:00 TS 21.0212 141.498 main 1494 1476 _PP___________ -1 21.0000 141.523 2 1002 0 0 21.0423 141.473 1 23 1002 9 267
1972204N20148 1972 62 WP MM NOT_NAMED 1972-07-29 12:00:00 TS 21.0000 141.000 1002 tokyo main 1476 1459 _OO___________ -1 21.0000 141.000 2 1002 0 0 0 21.0000 141.000 1 23 1002 9 267
1972204N20148 1972 62 WP MM NOT_NAMED 1972-07-29 15:00:00 TS 20.9712 140.482 main 1459 1442 _PP___________ -1 20.9999 140.500 2 1002 0 0 20.9425 140.465 1 21 1003 10 267
1972204N20148 1972 62 WP MM NOT_NAMED 1972-07-29 18:00:00 TS 20.9571 139.957 1002 tokyo main 1442 1413 _OO___________ -1 21.0000 140.000 2 1002 0 0 0 20.9000 139.900 0 19 1005 10 270
1972204N20148 1972 62 WP MM NOT_NAMED 1972-07-29 21:00:00 TS 20.9633 139.448 main 1407 1385 _PP___________ -1 20.9999 139.500 2 1003 0 0 20.8903 139.345 0 19 1006 9 271
1972204N20148 1972 62 WP MM NOT_NAMED 1972-07-30 00:00:00 TS 20.9800 138.960 1004 tokyo main 1385 1359 _OO___________ -1 21.0000 139.000 2 1004 0 0 0 20.9000 138.800 0 19 1007 9 272
1972204N20148 1972 62 WP MM NOT_NAMED 1972-07-30 03:00:00 TS 20.9999 138.500 main 1359 1332 _P____________ -1 20.9999 138.500 2 1004 0 0 0 9 271
1972204N20148 1972 62 WP MM NOT_NAMED 1972-07-30 06:00:00 TS 21.0000 138.000 1004 tokyo main 1332 1306 _O____________ -1 21.0000 138.000 2 1004 0 0 0 9 270
1972204N20148 1972 62 WP MM NOT_NAMED 1972-07-30 09:00:00 TS 21.0003 137.500 main 1306 1281 _P____________ -1 21.0003 137.500 2 1004 0 0 9 270
1972204N20148 1972 62 WP MM NOT_NAMED 1972-07-30 12:00:00 TS 21.0000 137.000 1004 tokyo main 1281 _O____________ -1 21.0000 137.000 2 1004 0 0 0 9 270

デジタル台風データ・検索

IBTrACS Databaseについて

本データベースは、米国NOAAが公開する1842年以降の世界の熱帯低気圧のベストトラックデータアーカイブInternational Best Track Archive for Climate Stewardship (IBTrACS)を、ウェブで閲覧しやすい形式に変換したものです。

最終更新日:2021-12-06